createdAt,value
2024-01-19T00:02:21.671Z,-2.50
2024-01-19T00:04:49.732Z,-2.60
2024-01-19T00:07:17.774Z,-2.50
2024-01-19T00:09:45.870Z,-2.50
2024-01-19T00:12:14.039Z,-2.60
2024-01-19T00:14:42.168Z,-2.60
2024-01-19T00:17:10.202Z,-2.60
2024-01-19T00:19:39.725Z,-2.60
2024-01-19T00:22:07.761Z,-2.60
2024-01-19T00:24:35.840Z,-2.60
2024-01-19T00:27:05.190Z,-2.60
2024-01-19T00:29:33.321Z,-2.50
2024-01-19T00:32:01.357Z,-2.50
2024-01-19T00:34:29.352Z,-2.40
2024-01-19T00:36:58.786Z,-2.40
2024-01-19T00:39:26.760Z,-2.40
2024-01-19T00:41:55.416Z,-2.40
2024-01-19T00:44:23.473Z,-2.30
2024-01-19T00:46:52.247Z,-2.30
2024-01-19T00:49:20.305Z,-2.30
2024-01-19T00:51:48.726Z,-2.30
2024-01-19T00:54:18.125Z,-2.30
2024-01-19T00:56:46.221Z,-2.30
2024-01-19T00:59:14.408Z,-2.20
2024-01-19T01:01:42.444Z,-2.20
2024-01-19T01:04:11.052Z,-2.20
2024-01-19T01:06:39.220Z,-2.20
2024-01-19T01:09:08.510Z,-2.20
2024-01-19T01:11:37.939Z,-2.20
2024-01-19T01:14:05.986Z,-2.20
2024-01-19T01:16:35.000Z,-2.20
2024-01-19T01:19:03.027Z,-2.20
2024-01-19T01:21:31.077Z,-2.20
2024-01-19T01:23:59.098Z,-2.20
2024-01-19T01:26:27.200Z,-2.10
2024-01-19T01:28:56.647Z,-2.10
2024-01-19T01:31:24.821Z,-2.10
2024-01-19T01:33:53.068Z,-2.10
2024-01-19T01:36:21.285Z,-2.10
2024-01-19T01:38:49.628Z,-2.20
2024-01-19T01:41:17.638Z,-2.30
2024-01-19T01:43:45.639Z,-2.30
2024-01-19T01:46:15.084Z,-2.30
2024-01-19T01:48:43.276Z,-2.40
2024-01-19T01:51:12.425Z,-2.40
2024-01-19T01:53:40.655Z,-2.40
2024-01-19T01:56:08.737Z,-2.50
2024-01-19T01:58:36.842Z,-2.50
2024-01-19T02:01:05.136Z,-2.50
2024-01-19T02:03:35.458Z,-2.50
2024-01-19T02:06:04.012Z,-2.40
2024-01-19T02:08:32.721Z,-2.40
2024-01-19T02:11:00.842Z,-2.40
2024-01-19T02:13:28.833Z,-2.40
2024-01-19T02:16:01.136Z,-2.40
2024-01-19T02:18:29.440Z,-2.30
2024-01-19T02:20:59.050Z,-2.40
2024-01-19T02:23:29.600Z,-2.30
2024-01-19T02:25:59.158Z,-2.30
2024-01-19T02:28:27.368Z,-2.30
2024-01-19T02:30:55.422Z,-2.30
2024-01-19T02:33:23.491Z,-2.30
2024-01-19T02:35:51.638Z,-2.40
2024-01-19T02:38:19.754Z,-2.40
2024-01-19T02:40:47.782Z,-2.40
2024-01-19T02:43:17.287Z,-2.40
2024-01-19T02:45:45.359Z,-2.40
2024-01-19T02:48:14.110Z,-2.30
2024-01-19T02:50:42.461Z,-2.40
2024-01-19T02:53:10.502Z,-2.40
2024-01-19T02:55:38.519Z,-2.40
2024-01-19T02:58:06.519Z,-2.40
2024-01-19T03:00:36.048Z,-2.40
2024-01-19T03:03:04.122Z,-2.40
2024-01-19T03:05:32.167Z,-2.40
2024-01-19T03:08:00.530Z,-2.40
2024-01-19T03:10:28.562Z,-2.50
2024-01-19T03:12:56.630Z,-2.50
2024-01-19T03:15:24.624Z,-2.50
2024-01-19T03:17:54.015Z,-2.50
2024-01-19T03:20:22.082Z,-2.50
2024-01-19T03:22:50.128Z,-2.50
2024-01-19T03:25:18.134Z,-2.50
2024-01-19T03:27:46.108Z,-2.40
2024-01-19T03:30:15.068Z,-2.40
2024-01-19T03:32:43.226Z,-2.40
2024-01-19T03:35:12.732Z,-2.40
2024-01-19T03:37:40.819Z,-2.40
2024-01-19T03:40:11.141Z,-2.40
2024-01-19T03:42:39.399Z,-2.40
2024-01-19T03:45:08.889Z,-2.40
2024-01-19T03:47:37.003Z,-2.40
2024-01-19T03:50:07.280Z,-2.30
2024-01-19T03:52:38.509Z,-2.30
2024-01-19T03:55:06.893Z,-2.40
2024-01-19T03:57:35.184Z,-2.40
2024-01-19T04:00:06.483Z,-2.40
2024-01-19T04:02:34.807Z,-2.40
2024-01-19T04:05:02.894Z,-2.40
2024-01-19T04:07:30.874Z,-2.40
2024-01-19T04:10:00.388Z,-2.40
2024-01-19T04:12:28.437Z,-2.40
2024-01-19T04:14:57.084Z,-2.40
2024-01-19T04:17:25.267Z,-2.40
2024-01-19T04:19:53.269Z,-2.40
2024-01-19T04:22:21.384Z,-2.40
2024-01-19T04:24:49.530Z,-2.40
2024-01-19T04:27:18.945Z,-2.40
2024-01-19T04:29:47.039Z,-2.40
2024-01-19T04:32:15.063Z,-2.40
2024-01-19T04:34:44.821Z,-2.40
2024-01-19T04:37:12.860Z,-2.50
2024-01-19T04:39:40.889Z,-2.50
2024-01-19T04:42:09.041Z,-2.50
2024-01-19T04:44:38.552Z,-2.50
2024-01-19T04:47:07.144Z,-2.50
2024-01-19T04:49:35.229Z,-2.50
2024-01-19T04:52:03.342Z,-2.50
2024-01-19T04:54:31.361Z,-2.50
2024-01-19T04:56:59.433Z,-2.50
2024-01-19T04:59:27.532Z,-2.50
2024-01-19T05:01:57.407Z,-2.50
2024-01-19T05:04:25.504Z,-2.50
2024-01-19T05:06:53.836Z,-2.50
2024-01-19T05:09:22.107Z,-2.50
2024-01-19T05:11:50.100Z,-2.50
2024-01-19T05:14:18.154Z,-2.40
2024-01-19T05:16:46.233Z,-2.50
2024-01-19T05:19:15.636Z,-2.50
2024-01-19T05:21:43.669Z,-2.50
2024-01-19T05:24:11.714Z,-2.50
2024-01-19T05:26:39.803Z,-2.50
2024-01-19T05:29:07.814Z,-2.60
2024-01-19T05:31:35.879Z,-2.60
2024-01-19T05:34:04.460Z,-2.70
2024-01-19T05:36:33.982Z,-2.70
2024-01-19T05:39:02.020Z,-2.70
2024-01-19T05:41:30.011Z,-2.70
2024-01-19T05:43:57.997Z,-2.80
2024-01-19T05:46:25.946Z,-2.90
2024-01-19T05:48:53.951Z,-2.90
2024-01-19T05:51:21.966Z,-2.90
2024-01-19T05:53:51.427Z,-2.90
2024-01-19T05:56:19.449Z,-2.90
2024-01-19T05:58:47.484Z,-2.90
2024-01-19T06:01:15.572Z,-2.90
2024-01-19T06:03:43.810Z,-2.90
2024-01-19T06:06:11.894Z,-2.90
2024-01-19T06:08:40.051Z,-2.80
2024-01-19T06:11:09.480Z,-2.80
2024-01-19T06:13:37.459Z,-2.80
2024-01-19T06:16:05.732Z,-2.80
2024-01-19T06:18:35.696Z,-2.80
2024-01-19T06:21:04.027Z,-2.90
2024-01-19T06:23:32.180Z,-2.90
2024-01-19T06:26:00.317Z,-2.90
2024-01-19T06:28:29.687Z,-2.90
2024-01-19T06:30:57.659Z,-2.90
2024-01-19T06:33:25.730Z,-2.90
2024-01-19T06:35:53.899Z,-2.80
2024-01-19T06:38:22.558Z,-2.80
2024-01-19T06:40:50.799Z,-2.90
2024-01-19T06:43:19.491Z,-2.90
2024-01-19T06:45:48.907Z,-2.90
2024-01-19T06:48:17.961Z,-2.90
2024-01-19T06:50:46.235Z,-2.80
2024-01-19T06:53:14.384Z,-2.80
2024-01-19T06:55:42.491Z,-2.80
2024-01-19T06:58:10.712Z,-2.80
2024-01-19T07:00:38.788Z,-2.80
2024-01-19T07:03:08.381Z,-2.80
2024-01-19T07:05:36.663Z,-2.80
2024-01-19T07:08:05.651Z,-2.80
2024-01-19T07:10:33.601Z,-2.80
2024-01-19T07:13:01.645Z,-2.80
2024-01-19T07:15:29.636Z,-2.80
2024-01-19T07:17:57.768Z,-2.80
2024-01-19T07:20:27.282Z,-2.80
2024-01-19T07:22:55.362Z,-2.70
2024-01-19T07:25:23.533Z,-2.70
2024-01-19T07:27:51.524Z,-2.70
2024-01-19T07:30:19.629Z,-2.70
2024-01-19T07:32:56.883Z,-2.70
2024-01-19T07:35:34.690Z,-2.70
2024-01-19T07:38:02.812Z,-2.70
2024-01-19T07:40:30.821Z,-2.70
2024-01-19T07:42:58.843Z,-2.70
2024-01-19T07:45:26.911Z,-2.60
2024-01-19T07:47:54.973Z,-2.60
2024-01-19T07:50:23.764Z,-2.50
2024-01-19T07:52:53.162Z,-2.40
2024-01-19T07:55:21.560Z,-2.40
2024-01-19T07:57:49.597Z,-2.40
2024-01-19T08:00:18.746Z,-2.50
2024-01-19T08:02:47.532Z,-2.50
2024-01-19T08:05:15.840Z,-2.50
2024-01-19T08:07:44.045Z,-2.40
2024-01-19T08:10:13.663Z,-2.40
2024-01-19T08:12:41.984Z,-2.40
2024-01-19T08:15:11.307Z,-2.40
2024-01-19T08:17:39.377Z,-2.30
2024-01-19T08:20:10.501Z,-2.30
2024-01-19T08:22:38.566Z,-2.20
2024-01-19T08:25:07.066Z,-2.20
2024-01-19T08:27:36.441Z,-2.20
2024-01-19T08:30:04.926Z,-2.20
2024-01-19T08:32:33.272Z,-2.20
2024-01-19T08:35:01.527Z,-2.10
2024-01-19T08:37:29.797Z,-2.00
2024-01-19T08:40:00.013Z,-2.10
2024-01-19T08:42:27.988Z,-2.10
2024-01-19T08:44:57.378Z,-2.00
2024-01-19T08:47:25.385Z,-2.00
2024-01-19T08:49:53.469Z,-2.00
2024-01-19T08:52:23.557Z,-1.90
2024-01-19T08:54:51.542Z,-1.90
2024-01-19T08:57:19.608Z,-1.80
2024-01-19T08:59:47.693Z,-1.80
2024-01-19T09:02:17.008Z,-1.70
2024-01-19T09:04:45.069Z,-1.80
2024-01-19T09:07:15.593Z,-1.80
2024-01-19T09:09:44.093Z,-1.70
2024-01-19T09:12:12.107Z,-1.60
2024-01-19T09:14:40.181Z,-1.60
2024-01-19T09:17:08.292Z,-1.60
2024-01-19T09:19:40.197Z,-1.50
2024-01-19T09:22:08.621Z,-1.40
2024-01-19T09:24:36.572Z,-1.30
2024-01-19T09:27:04.989Z,-1.30
2024-01-19T09:29:33.090Z,-1.30
2024-01-19T09:32:01.113Z,-1.20
2024-01-19T09:34:29.303Z,-1.20
2024-01-19T09:36:58.707Z,-1.10
2024-01-19T09:39:26.821Z,-1.10
2024-01-19T09:42:03.742Z,-1.00
2024-01-19T09:44:36.610Z,-0.90
2024-01-19T09:47:19.439Z,-0.80
2024-01-19T09:50:04.344Z,-0.80
2024-01-19T09:52:45.461Z,-0.70
2024-01-19T09:55:13.712Z,-0.70
2024-01-19T09:57:47.728Z,-0.70
2024-01-19T10:00:17.940Z,-0.60
2024-01-19T10:02:47.354Z,-0.60
2024-01-19T10:05:16.775Z,-0.60
2024-01-19T10:07:47.957Z,-0.60
2024-01-19T10:10:16.665Z,-0.60
2024-01-19T10:12:44.958Z,-0.50
2024-01-19T10:15:14.017Z,-0.40
2024-01-19T10:17:43.326Z,-0.40
2024-01-19T10:20:13.550Z,-0.30
2024-01-19T10:22:41.779Z,-0.30
2024-01-19T10:25:13.188Z,-0.30
2024-01-19T10:27:42.837Z,-0.20
2024-01-19T10:30:12.894Z,-0.20
2024-01-19T10:32:41.641Z,-0.10
2024-01-19T10:35:12.707Z,0.00
2024-01-19T10:37:41.205Z,0.00
2024-01-19T10:40:21.248Z,0.00
2024-01-19T10:42:51.761Z,0.10
2024-01-19T10:45:23.034Z,0.10
2024-01-19T10:47:52.346Z,0.20
2024-01-19T10:50:21.629Z,0.20
2024-01-19T10:52:52.592Z,0.20
2024-01-19T10:55:24.008Z,0.30
2024-01-19T10:57:56.648Z,0.30
2024-01-19T11:00:27.295Z,0.40
2024-01-19T11:02:58.126Z,0.40
2024-01-19T11:05:27.323Z,0.50
2024-01-19T11:07:56.668Z,0.60
2024-01-19T11:10:27.531Z,0.60
2024-01-19T11:12:57.463Z,0.70
2024-01-19T11:15:32.149Z,0.70
2024-01-19T11:18:01.981Z,0.80
2024-01-19T11:20:32.416Z,0.90
2024-01-19T11:23:02.143Z,1.00
2024-01-19T11:25:42.613Z,1.00
2024-01-19T11:28:17.604Z,1.00
2024-01-19T11:31:03.817Z,1.10
2024-01-19T11:33:32.986Z,1.00
2024-01-19T11:36:01.336Z,1.10
2024-01-19T11:38:49.710Z,1.10
2024-01-19T11:41:46.109Z,1.10
2024-01-19T11:44:44.840Z,1.10
2024-01-19T11:47:42.430Z,1.20
2024-01-19T11:50:12.502Z,1.20
2024-01-19T11:52:45.880Z,1.20
2024-01-19T11:55:42.400Z,1.30
2024-01-19T11:58:32.718Z,1.40
2024-01-19T12:01:02.197Z,1.40
2024-01-19T12:03:30.365Z,1.50
2024-01-19T12:06:01.251Z,1.50
2024-01-19T12:08:30.509Z,1.60
2024-01-19T12:11:09.782Z,1.50
2024-01-19T12:13:48.503Z,1.40
2024-01-19T12:16:22.522Z,1.50
2024-01-19T12:18:55.744Z,1.50
2024-01-19T12:21:24.387Z,1.50
2024-01-19T12:23:57.250Z,1.50
2024-01-19T12:26:25.686Z,1.60
2024-01-19T12:28:56.351Z,1.50
2024-01-19T12:31:29.957Z,1.60
2024-01-19T12:33:58.247Z,1.60
2024-01-19T12:36:28.822Z,1.50
2024-01-19T12:39:06.958Z,1.40
2024-01-19T12:41:35.553Z,1.30
2024-01-19T12:44:05.189Z,1.30
2024-01-19T12:46:33.244Z,1.30
2024-01-19T12:49:04.166Z,1.30
2024-01-19T12:51:33.706Z,1.30
2024-01-19T12:54:01.843Z,1.40
2024-01-19T12:56:31.052Z,1.30
2024-01-19T12:59:11.088Z,1.30
2024-01-19T13:01:40.060Z,1.30
2024-01-19T13:04:08.089Z,1.30
2024-01-19T13:06:42.729Z,1.20
2024-01-19T13:09:11.734Z,1.30
2024-01-19T13:11:39.793Z,1.30
2024-01-19T13:14:09.677Z,1.30
2024-01-19T13:16:53.071Z,1.30
2024-01-19T13:19:21.211Z,1.30
2024-01-19T13:21:50.211Z,1.30
2024-01-19T13:24:18.371Z,1.40
2024-01-19T13:26:46.868Z,1.40
2024-01-19T13:29:16.513Z,1.40
2024-01-19T13:31:44.733Z,1.30
2024-01-19T13:34:12.874Z,1.30
2024-01-19T13:36:40.928Z,1.30
2024-01-19T13:39:09.065Z,1.30
2024-01-19T13:41:37.201Z,1.30
2024-01-19T13:44:05.443Z,1.30
2024-01-19T13:46:34.832Z,1.30
2024-01-19T13:49:02.887Z,1.20
2024-01-19T13:51:31.908Z,1.20
2024-01-19T13:53:59.912Z,1.20
2024-01-19T13:56:28.021Z,1.20
2024-01-19T13:58:56.091Z,1.10
2024-01-19T14:01:24.524Z,1.20
2024-01-19T14:03:54.666Z,1.10
2024-01-19T14:06:22.984Z,1.10
2024-01-19T14:08:53.303Z,1.10
2024-01-19T14:11:22.305Z,1.00
2024-01-19T14:13:51.103Z,1.00
2024-01-19T14:16:19.197Z,1.00
2024-01-19T14:18:47.457Z,0.90
2024-01-19T14:21:17.475Z,0.90
2024-01-19T14:23:46.065Z,0.90
2024-01-19T14:26:14.339Z,0.90
2024-01-19T14:28:42.553Z,0.90
2024-01-19T14:31:10.620Z,0.90
2024-01-19T14:33:38.640Z,0.80
2024-01-19T14:36:07.236Z,0.80
2024-01-19T14:38:39.104Z,0.80
2024-01-19T14:41:07.612Z,0.80
2024-01-19T14:43:36.791Z,0.70
2024-01-19T14:46:06.453Z,0.70
2024-01-19T14:48:35.084Z,0.70
2024-01-19T14:51:03.564Z,0.60
2024-01-19T14:53:32.017Z,0.60
2024-01-19T14:56:01.787Z,0.60
2024-01-19T14:58:29.915Z,0.50
2024-01-19T15:00:58.032Z,0.40
2024-01-19T15:03:26.113Z,0.40
2024-01-19T15:05:54.202Z,0.30
2024-01-19T15:08:22.226Z,0.30
2024-01-19T15:10:50.919Z,0.30
2024-01-19T15:13:20.615Z,0.30
2024-01-19T15:15:48.656Z,0.30
2024-01-19T15:18:17.388Z,0.30
2024-01-19T15:20:45.562Z,0.20
2024-01-19T15:23:13.702Z,0.20
2024-01-19T15:25:42.404Z,0.10
2024-01-19T15:28:10.498Z,0.10
2024-01-19T15:30:43.866Z,0.10
2024-01-19T15:33:13.141Z,0.10
2024-01-19T15:35:41.205Z,0.10
2024-01-19T15:38:09.356Z,0.10
2024-01-19T15:40:37.679Z,0.00
2024-01-19T15:43:06.104Z,0.00
2024-01-19T15:45:34.193Z,0.00
2024-01-19T15:48:03.669Z,0.00
2024-01-19T15:50:31.849Z,-0.10
2024-01-19T15:52:59.930Z,-0.10
2024-01-19T15:55:28.072Z,0.00
2024-01-19T15:57:56.327Z,-0.10
2024-01-19T16:00:24.317Z,-0.10
2024-01-19T16:02:52.297Z,-0.10
2024-01-19T16:05:21.691Z,-0.20
2024-01-19T16:07:49.823Z,-0.20
2024-01-19T16:10:18.074Z,-0.20
2024-01-19T16:12:47.010Z,-0.20
2024-01-19T16:15:15.203Z,-0.20
2024-01-19T16:17:43.307Z,-0.10
2024-01-19T16:20:12.339Z,-0.10
2024-01-19T16:22:41.951Z,-0.10
2024-01-19T16:25:10.237Z,0.00
2024-01-19T16:27:38.264Z,0.00
2024-01-19T16:30:07.403Z,0.00
2024-01-19T16:32:35.419Z,0.00
2024-01-19T16:35:05.407Z,0.00
2024-01-19T16:37:33.677Z,0.00
2024-01-19T16:40:03.719Z,0.00
2024-01-19T16:42:33.458Z,0.10
2024-01-19T16:45:02.694Z,0.10
2024-01-19T16:47:32.408Z,0.10
2024-01-19T16:50:00.448Z,0.10
2024-01-19T16:52:28.527Z,0.10
2024-01-19T16:54:56.555Z,0.10
2024-01-19T16:57:25.964Z,0.10
2024-01-19T16:59:53.950Z,0.00
2024-01-19T17:02:21.898Z,0.00
2024-01-19T17:04:50.099Z,0.00
2024-01-19T17:07:18.388Z,-0.10
2024-01-19T17:09:46.535Z,0.00
2024-01-19T17:12:14.719Z,-0.10
2024-01-19T17:14:44.113Z,-0.10
2024-01-19T17:17:12.234Z,-0.10
2024-01-19T17:19:40.294Z,-0.10
2024-01-19T17:22:08.298Z,-0.10
2024-01-19T17:24:40.364Z,-0.10
2024-01-19T17:27:08.943Z,-0.10
2024-01-19T17:29:37.382Z,-0.10
2024-01-19T17:32:10.618Z,-0.10
2024-01-19T17:34:39.197Z,0.00
2024-01-19T17:37:08.937Z,0.00
2024-01-19T17:39:36.999Z,0.00
2024-01-19T17:42:06.072Z,0.00
2024-01-19T17:44:34.108Z,0.10
2024-01-19T17:47:02.132Z,0.10
2024-01-19T17:49:31.538Z,0.10
2024-01-19T17:51:59.583Z,0.10
2024-01-19T17:54:31.985Z,0.10
2024-01-19T17:57:00.170Z,0.10
2024-01-19T17:59:28.203Z,0.10
2024-01-19T18:01:56.295Z,0.10
2024-01-19T18:04:24.407Z,0.20
2024-01-19T18:06:53.861Z,0.20
2024-01-19T18:09:22.532Z,0.10
2024-01-19T18:11:52.122Z,0.20
2024-01-19T18:14:20.695Z,0.20
2024-01-19T18:16:48.789Z,0.20
2024-01-19T18:19:17.241Z,0.20
2024-01-19T18:21:46.467Z,0.20
2024-01-19T18:24:16.124Z,0.20
2024-01-19T18:26:46.339Z,0.20
2024-01-19T18:29:16.698Z,0.20
2024-01-19T18:31:44.859Z,0.20
2024-01-19T18:34:13.092Z,0.20
2024-01-19T18:36:41.249Z,0.20
2024-01-19T18:39:10.396Z,0.30
2024-01-19T18:41:40.793Z,0.30
2024-01-19T18:44:09.026Z,0.20
2024-01-19T18:46:37.087Z,0.20
2024-01-19T18:49:05.182Z,0.20
2024-01-19T18:51:33.198Z,0.20
2024-01-19T18:54:01.634Z,0.20
2024-01-19T18:56:29.845Z,0.10
2024-01-19T18:58:59.376Z,0.10
2024-01-19T19:01:28.552Z,0.10
2024-01-19T19:03:57.098Z,0.10
2024-01-19T19:06:27.717Z,0.10
2024-01-19T19:08:56.394Z,0.10
2024-01-19T19:11:24.557Z,0.00
2024-01-19T19:13:52.687Z,0.00
2024-01-19T19:16:34.605Z,-0.10
2024-01-19T19:19:06.890Z,-0.10
2024-01-19T19:21:34.971Z,-0.10
2024-01-19T19:24:03.685Z,-0.10
2024-01-19T19:26:31.948Z,-0.10
2024-01-19T19:29:00.044Z,-0.10
2024-01-19T19:31:29.952Z,-0.10
2024-01-19T19:33:58.087Z,-0.10
2024-01-19T19:36:27.576Z,-0.10
2024-01-19T19:38:55.843Z,-0.10
2024-01-19T19:41:24.136Z,-0.10
2024-01-19T19:43:52.472Z,-0.10
2024-01-19T19:46:20.545Z,-0.20
2024-01-19T19:48:50.009Z,-0.20
2024-01-19T19:51:19.644Z,-0.20
2024-01-19T19:53:47.912Z,-0.20
2024-01-19T19:56:16.178Z,-0.20
2024-01-19T19:58:44.441Z,-0.20
2024-01-19T20:01:12.776Z,-0.20
2024-01-19T20:03:40.858Z,-0.30
2024-01-19T20:06:10.801Z,-0.30
2024-01-19T20:08:38.860Z,-0.30
2024-01-19T20:11:07.774Z,-0.30
2024-01-19T20:13:36.120Z,-0.30
2024-01-19T20:16:04.516Z,-0.30
2024-01-19T20:18:32.664Z,-0.30
2024-01-19T20:21:00.809Z,-0.30
2024-01-19T20:23:30.566Z,-0.40
2024-01-19T20:26:00.333Z,-0.40
2024-01-19T20:28:29.090Z,-0.40
2024-01-19T20:30:57.696Z,-0.40
2024-01-19T20:33:25.918Z,-0.40
2024-01-19T20:35:53.957Z,-0.40
2024-01-19T20:38:22.095Z,-0.40
2024-01-19T20:40:51.584Z,-0.40
2024-01-19T20:43:19.635Z,-0.50
2024-01-19T20:45:47.836Z,-0.50
2024-01-19T20:48:16.937Z,-0.50
2024-01-19T20:50:45.497Z,-0.50
2024-01-19T20:53:14.184Z,-0.50
2024-01-19T20:55:42.313Z,-0.50
2024-01-19T20:58:12.230Z,-0.50
2024-01-19T21:00:40.855Z,-0.50
2024-01-19T21:03:10.623Z,-0.40
2024-01-19T21:05:39.589Z,-0.40
2024-01-19T21:08:08.268Z,-0.40
2024-01-19T21:10:39.013Z,-0.40
2024-01-19T21:13:08.018Z,-0.40
2024-01-19T21:15:37.533Z,-0.40
2024-01-19T21:18:06.417Z,-0.50
2024-01-19T21:20:34.655Z,-0.50
2024-01-19T21:23:03.552Z,-0.50
2024-01-19T21:25:32.093Z,-0.60
2024-01-19T21:28:02.065Z,-0.60
2024-01-19T21:30:31.107Z,-0.60
2024-01-19T21:33:00.557Z,-0.60
2024-01-19T21:35:28.664Z,-0.60
2024-01-19T21:37:56.747Z,-0.70
2024-01-19T21:40:25.582Z,-0.60
2024-01-19T21:42:53.757Z,-0.70
2024-01-19T21:45:21.811Z,-0.70
2024-01-19T21:47:49.994Z,-0.70
2024-01-19T21:50:19.861Z,-0.70
2024-01-19T21:52:48.344Z,-0.70
2024-01-19T21:55:18.003Z,-0.70
2024-01-19T21:57:46.273Z,-0.60
2024-01-19T22:00:15.189Z,-0.60
2024-01-19T22:02:47.260Z,-0.70
2024-01-19T22:05:16.397Z,-0.70
2024-01-19T22:07:46.467Z,-0.70
2024-01-19T22:10:14.680Z,-0.80
2024-01-19T22:12:42.781Z,-0.80
2024-01-19T22:15:11.489Z,-0.80
2024-01-19T22:17:39.516Z,-0.80
2024-01-19T22:20:08.679Z,-0.90
2024-01-19T22:22:36.713Z,-0.80
2024-01-19T22:25:06.692Z,-0.80
2024-01-19T22:27:34.805Z,-0.90
2024-01-19T22:30:02.990Z,-0.90
2024-01-19T22:32:31.233Z,-0.90
2024-01-19T22:34:59.864Z,-0.90
2024-01-19T22:37:28.279Z,-0.90
2024-01-19T22:39:56.517Z,-0.80
2024-01-19T22:42:25.975Z,-0.80
2024-01-19T22:44:54.108Z,-0.90
2024-01-19T22:47:22.363Z,-0.90
2024-01-19T22:49:50.532Z,-0.90
2024-01-19T22:52:22.105Z,-0.90
2024-01-19T22:54:50.720Z,-0.80
2024-01-19T22:57:18.884Z,-0.70
2024-01-19T22:59:48.437Z,-0.80
2024-01-19T23:02:16.604Z,-0.80
2024-01-19T23:04:45.099Z,-0.80
2024-01-19T23:07:13.784Z,-0.80
2024-01-19T23:09:41.818Z,-0.80
2024-01-19T23:12:10.055Z,-0.80
2024-01-19T23:14:38.352Z,-0.80
2024-01-19T23:17:07.861Z,-0.70
2024-01-19T23:19:35.955Z,-0.70
2024-01-19T23:22:04.189Z,-0.80
2024-01-19T23:24:32.897Z,-0.80
2024-01-19T23:27:01.078Z,-0.80
2024-01-19T23:29:29.375Z,-0.70
2024-01-19T23:31:58.069Z,-0.70
2024-01-19T23:34:27.635Z,-0.70
2024-01-19T23:36:55.794Z,-0.70
2024-01-19T23:39:23.976Z,-0.70
2024-01-19T23:41:52.666Z,-0.70
2024-01-19T23:44:21.202Z,-0.70
2024-01-19T23:46:49.305Z,-0.80
2024-01-19T23:49:17.377Z,-0.80
2024-01-19T23:51:46.767Z,-0.80
2024-01-19T23:54:17.077Z,-0.80
2024-01-19T23:56:45.080Z,-0.80
2024-01-19T23:59:13.241Z,-0.80
